createdAt,value
2023-11-16T00:01:41.210Z,3.10
2023-11-16T00:04:08.784Z,3.00
2023-11-16T00:06:36.244Z,3.00
2023-11-16T00:09:03.722Z,3.00
2023-11-16T00:11:31.127Z,2.60
2023-11-16T00:13:58.364Z,3.30
2023-11-16T00:16:26.705Z,3.70
2023-11-16T00:18:55.288Z,3.40
2023-11-16T00:21:22.644Z,3.40
2023-11-16T00:23:50.267Z,3.60
2023-11-16T00:26:20.608Z,3.90
2023-11-16T00:28:49.920Z,4.40
2023-11-16T00:31:17.269Z,4.60
2023-11-16T00:33:46.509Z,5.00
2023-11-16T00:36:14.433Z,5.10
2023-11-16T00:38:41.524Z,5.70
2023-11-16T00:41:16.878Z,5.10
2023-11-16T00:43:45.308Z,4.90
2023-11-16T00:46:17.350Z,4.70
2023-11-16T00:48:45.021Z,4.30
2023-11-16T00:51:15.858Z,4.10
2023-11-16T00:53:45.884Z,3.30
2023-11-16T00:56:15.023Z,3.10
2023-11-16T00:58:46.851Z,2.20
2023-11-16T01:01:22.553Z,2.50
2023-11-16T01:03:51.341Z,2.10
2023-11-16T01:06:18.763Z,2.00
2023-11-16T01:08:45.891Z,2.10
2023-11-16T01:11:18.498Z,2.30
2023-11-16T01:13:48.651Z,2.20
2023-11-16T01:16:16.519Z,1.90
2023-11-16T01:18:52.639Z,2.00
2023-11-16T01:23:49.857Z,2.00
2023-11-16T01:26:17.879Z,2.00
2023-11-16T01:28:48.785Z,2.10
2023-11-16T01:31:17.110Z,2.00
2023-11-16T01:33:45.349Z,2.20
2023-11-16T01:36:12.679Z,2.40
2023-11-16T01:38:39.846Z,1.80
2023-11-16T01:41:08.379Z,2.10
2023-11-16T01:43:37.088Z,2.00
2023-11-16T01:46:08.093Z,1.90
2023-11-16T01:48:41.442Z,1.90
2023-11-16T01:51:14.314Z,1.80
2023-11-16T01:53:52.003Z,1.80
2023-11-16T01:56:21.653Z,2.10
2023-11-16T01:58:50.704Z,1.90
2023-11-16T02:04:16.234Z,1.60
2023-11-16T02:07:20.275Z,2.10
2023-11-16T02:10:09.991Z,2.10
2023-11-16T02:12:38.190Z,2.20
2023-11-16T02:15:10.873Z,3.10
2023-11-16T02:17:41.617Z,2.20
2023-11-16T02:20:14.034Z,2.70
2023-11-16T02:22:54.201Z,2.10
2023-11-16T02:25:27.050Z,2.20
2023-11-16T02:27:55.957Z,2.50
2023-11-16T02:30:23.819Z,2.90
2023-11-16T02:32:51.803Z,3.30
2023-11-16T02:35:18.974Z,4.60
2023-11-16T02:37:46.329Z,4.90
2023-11-16T02:40:15.016Z,5.50
2023-11-16T02:42:42.141Z,4.20
2023-11-16T02:45:09.957Z,5.60
2023-11-16T02:47:38.372Z,6.00
2023-11-16T02:50:06.062Z,6.60
2023-11-16T02:52:34.702Z,7.30
2023-11-16T02:55:02.001Z,6.10
2023-11-16T02:57:30.711Z,6.90
2023-11-16T02:59:57.876Z,6.90
2023-11-16T03:02:24.906Z,7.30
2023-11-16T03:04:52.429Z,7.00
2023-11-16T03:07:27.004Z,6.60
2023-11-16T03:10:00.312Z,7.80
2023-11-16T03:12:27.625Z,7.20
2023-11-16T03:14:54.825Z,6.90
2023-11-16T03:17:24.298Z,7.60
2023-11-16T03:19:51.701Z,6.50
2023-11-16T03:22:18.795Z,6.90
2023-11-16T03:24:45.930Z,6.90
2023-11-16T03:27:13.098Z,6.40
2023-11-16T03:29:43.281Z,7.70
2023-11-16T03:32:11.276Z,7.10
2023-11-16T03:34:38.488Z,7.40
2023-11-16T03:37:05.489Z,7.20
2023-11-16T03:39:33.243Z,7.10
2023-11-16T03:42:00.862Z,7.70
2023-11-16T03:44:28.406Z,7.70
2023-11-16T03:46:56.407Z,8.20
2023-11-16T03:49:24.196Z,7.20
2023-11-16T03:51:51.648Z,7.50
2023-11-16T03:54:19.075Z,7.00
2023-11-16T03:56:46.522Z,7.80
2023-11-16T03:59:19.126Z,8.40
2023-11-16T04:01:46.210Z,8.20
2023-11-16T04:04:13.391Z,8.50
2023-11-16T04:06:40.862Z,8.00
2023-11-16T04:09:09.007Z,7.40
2023-11-16T04:11:43.109Z,7.80
2023-11-16T04:14:10.979Z,8.00
2023-11-16T04:16:40.322Z,8.90
2023-11-16T04:19:07.327Z,8.20
2023-11-16T04:21:38.239Z,8.30
2023-11-16T04:24:10.195Z,7.60
2023-11-16T04:26:38.265Z,9.40
2023-11-16T04:29:06.668Z,8.20
2023-11-16T04:31:36.940Z,8.50
2023-11-16T04:34:04.088Z,9.60
2023-11-16T04:36:33.537Z,9.30
2023-11-16T04:39:01.805Z,10.00
2023-11-16T04:41:31.946Z,9.20
2023-11-16T04:43:59.127Z,9.10
2023-11-16T04:46:29.387Z,10.50
2023-11-16T04:48:56.805Z,9.50
2023-11-16T04:51:26.032Z,11.10
2023-11-16T04:53:55.518Z,10.80
2023-11-16T04:56:22.500Z,10.50
2023-11-16T04:58:49.998Z,12.30
2023-11-16T05:01:18.396Z,11.60
2023-11-16T05:03:46.345Z,13.10
2023-11-16T05:06:15.002Z,11.80
2023-11-16T05:08:43.016Z,12.10
2023-11-16T05:11:10.207Z,11.30
2023-11-16T05:13:37.325Z,11.20
2023-11-16T05:16:05.861Z,11.50
2023-11-16T05:18:33.655Z,10.70
2023-11-16T05:21:05.678Z,11.80
2023-11-16T05:23:32.922Z,12.00
2023-11-16T05:26:01.329Z,10.80
2023-11-16T05:28:28.825Z,12.00
2023-11-16T05:30:55.977Z,11.60
2023-11-16T05:33:26.474Z,11.90
2023-11-16T05:35:57.621Z,12.30
2023-11-16T05:38:25.431Z,11.30
2023-11-16T05:40:53.843Z,11.40
2023-11-16T05:43:21.581Z,11.10
2023-11-16T05:45:49.174Z,13.20
2023-11-16T05:48:17.099Z,12.40
2023-11-16T05:50:44.781Z,12.30
2023-11-16T05:53:12.814Z,12.20
2023-11-16T05:55:40.541Z,13.20
2023-11-16T05:58:07.970Z,11.60
2023-11-16T06:00:39.471Z,12.10
2023-11-16T06:03:08.156Z,12.40
2023-11-16T06:05:37.561Z,13.00
2023-11-16T06:08:05.223Z,12.20
2023-11-16T06:10:32.725Z,12.30
2023-11-16T06:13:00.975Z,11.60
2023-11-16T06:15:32.739Z,12.70
2023-11-16T06:18:03.051Z,12.10
2023-11-16T06:20:32.683Z,13.30
2023-11-16T06:22:59.640Z,13.20
2023-11-16T06:25:26.641Z,12.00
2023-11-16T06:27:53.858Z,11.90
2023-11-16T06:30:21.247Z,13.10
2023-11-16T06:32:49.352Z,12.40
2023-11-16T06:35:16.361Z,10.80
2023-11-16T06:37:45.000Z,12.50
2023-11-16T06:40:13.225Z,13.00
2023-11-16T06:42:41.801Z,12.10
2023-11-16T06:45:09.867Z,13.40
2023-11-16T06:47:37.102Z,15.80
2023-11-16T06:50:05.676Z,15.60
2023-11-16T06:52:34.435Z,14.70
2023-11-16T06:55:02.637Z,15.00
2023-11-16T06:57:30.249Z,15.70
2023-11-16T06:59:59.045Z,16.30
2023-11-16T07:02:26.077Z,16.40
2023-11-16T07:04:53.054Z,16.70
2023-11-16T07:07:20.115Z,18.10
2023-11-16T07:09:48.569Z,18.50
2023-11-16T07:12:16.903Z,17.10
2023-11-16T07:14:55.136Z,19.10
2023-11-16T07:18:22.828Z,19.50
2023-11-16T07:21:43.549Z,21.00
2023-11-16T07:24:57.566Z,22.00
2023-11-16T07:27:55.492Z,23.70
2023-11-16T07:30:44.053Z,25.20
2023-11-16T07:33:24.220Z,24.30
2023-11-16T07:36:13.100Z,22.70
2023-11-16T07:38:44.668Z,25.90
2023-11-16T07:41:13.483Z,26.00
2023-11-16T07:43:44.984Z,24.40
2023-11-16T07:46:13.519Z,28.90
2023-11-16T07:48:42.471Z,29.50
2023-11-16T07:51:09.975Z,29.40
2023-11-16T07:53:37.891Z,29.40
2023-11-16T07:56:09.872Z,29.30
2023-11-16T07:58:39.121Z,28.50
2023-11-16T08:01:06.214Z,28.50
2023-11-16T08:03:45.837Z,31.50
2023-11-16T08:06:14.437Z,30.90
2023-11-16T08:08:51.686Z,29.40
2023-11-16T08:11:21.369Z,31.70
2023-11-16T08:13:48.528Z,30.60
2023-11-16T08:16:22.958Z,31.70
2023-11-16T08:18:51.049Z,29.90
2023-11-16T08:21:18.868Z,33.60
2023-11-16T08:23:51.860Z,30.90
2023-11-16T08:26:21.018Z,34.80
2023-11-16T08:28:50.160Z,34.30
2023-11-16T08:31:19.578Z,35.80
2023-11-16T08:33:48.694Z,30.90
2023-11-16T08:36:17.997Z,32.60
2023-11-16T08:38:48.044Z,31.80
2023-11-16T08:41:20.119Z,31.90
2023-11-16T08:43:48.950Z,25.20
2023-11-16T08:46:22.961Z,25.30
2023-11-16T08:48:54.050Z,24.90
2023-11-16T08:51:25.012Z,23.50
2023-11-16T08:53:58.363Z,22.40
2023-11-16T08:56:35.521Z,23.40
2023-11-16T08:59:09.105Z,19.40
2023-11-16T09:01:40.341Z,23.10
2023-11-16T09:04:11.086Z,20.70
2023-11-16T09:06:38.834Z,22.20
2023-11-16T09:09:25.950Z,19.40
2023-11-16T09:11:54.185Z,19.60
2023-11-16T09:14:21.257Z,20.00
2023-11-16T09:17:02.437Z,17.10
2023-11-16T09:19:38.663Z,16.60
2023-11-16T09:22:06.151Z,17.50
2023-11-16T09:24:33.506Z,15.90
2023-11-16T09:27:01.071Z,16.40
2023-11-16T09:29:32.514Z,17.50
2023-11-16T09:32:00.291Z,16.80
2023-11-16T09:34:28.730Z,18.80
2023-11-16T09:36:56.044Z,16.90
2023-11-16T09:39:24.150Z,15.70
2023-11-16T09:41:51.491Z,17.80
2023-11-16T09:44:20.728Z,18.90
2023-11-16T09:46:48.788Z,19.90
2023-11-16T09:49:18.900Z,17.80
2023-11-16T09:51:47.524Z,19.60
2023-11-16T09:54:22.501Z,19.00
2023-11-16T09:56:51.001Z,21.30
2023-11-16T09:59:29.112Z,20.20
2023-11-16T10:02:09.941Z,21.20
2023-11-16T10:04:43.358Z,21.50
2023-11-16T10:07:17.717Z,22.50
2023-11-16T10:09:45.649Z,20.20
2023-11-16T10:12:14.459Z,19.20
2023-11-16T10:14:42.952Z,21.20
2023-11-16T10:17:10.087Z,20.80
2023-11-16T10:19:37.365Z,21.20
2023-11-16T10:22:09.362Z,20.90
2023-11-16T10:24:37.027Z,16.90
2023-11-16T10:27:04.494Z,17.30
2023-11-16T10:29:31.606Z,15.40
2023-11-16T10:32:05.032Z,17.00
2023-11-16T10:34:33.642Z,16.10
2023-11-16T10:37:02.296Z,13.10
2023-11-16T10:39:30.338Z,15.20
2023-11-16T10:42:03.082Z,15.30
2023-11-16T10:44:34.199Z,15.80
2023-11-16T10:47:03.149Z,13.70
2023-11-16T10:49:30.562Z,13.20
2023-11-16T10:52:02.902Z,12.60
2023-11-16T10:54:39.105Z,13.30
2023-11-16T10:57:06.466Z,13.40
2023-11-16T10:59:34.623Z,12.70
2023-11-16T11:02:05.539Z,13.40
2023-11-16T11:04:33.389Z,11.20
2023-11-16T11:07:01.109Z,12.70
2023-11-16T11:09:45.665Z,12.90
2023-11-16T11:12:15.158Z,11.80
2023-11-16T11:14:47.860Z,9.70
2023-11-16T11:17:21.637Z,12.60
2023-11-16T11:20:01.205Z,11.80
2023-11-16T11:22:30.327Z,12.40
2023-11-16T11:24:59.557Z,11.00
2023-11-16T11:27:30.792Z,12.80
2023-11-16T11:30:11.267Z,11.70
2023-11-16T11:32:53.355Z,11.80
2023-11-16T11:35:31.096Z,11.90
2023-11-16T11:37:58.666Z,11.50
2023-11-16T11:40:26.573Z,12.50
2023-11-16T11:42:54.598Z,11.10
2023-11-16T11:45:22.056Z,12.90
2023-11-16T11:47:50.311Z,12.60
2023-11-16T11:50:20.773Z,12.50
2023-11-16T11:52:54.403Z,12.00
2023-11-16T11:55:27.992Z,12.70
2023-11-16T11:57:55.417Z,12.40
2023-11-16T12:00:24.466Z,12.60
2023-11-16T12:02:52.104Z,12.40
2023-11-16T12:05:20.788Z,12.00
2023-11-16T12:08:01.779Z,13.50
2023-11-16T12:10:30.569Z,12.80
2023-11-16T12:13:00.282Z,16.80
2023-11-16T12:15:28.057Z,13.00
2023-11-16T12:18:00.239Z,10.80
2023-11-16T12:20:29.516Z,11.30
2023-11-16T12:22:59.951Z,11.60
2023-11-16T12:25:28.070Z,11.50
2023-11-16T12:27:55.145Z,11.10
2023-11-16T12:30:23.025Z,12.00
2023-11-16T12:32:50.676Z,10.50
2023-11-16T12:35:17.997Z,10.90
2023-11-16T12:37:47.577Z,10.90
2023-11-16T12:40:20.135Z,9.70
2023-11-16T12:42:49.991Z,9.10
2023-11-16T12:45:17.340Z,10.40
2023-11-16T12:47:45.414Z,8.80
2023-11-16T12:50:14.099Z,8.40
2023-11-16T12:52:41.648Z,8.30
2023-11-16T12:55:11.994Z,8.00
2023-11-16T12:57:40.287Z,8.20
2023-11-16T13:00:10.787Z,8.40
2023-11-16T13:02:38.820Z,7.20
2023-11-16T13:05:10.791Z,6.70
2023-11-16T13:07:40.934Z,6.80
2023-11-16T13:10:09.051Z,6.60
2023-11-16T13:12:36.374Z,7.00
2023-11-16T13:15:03.800Z,6.40
2023-11-16T13:17:31.784Z,7.50
2023-11-16T13:19:58.967Z,7.50
2023-11-16T13:22:26.073Z,8.00
2023-11-16T13:24:54.086Z,8.90
2023-11-16T13:27:28.468Z,8.00
2023-11-16T13:29:58.839Z,7.70
2023-11-16T13:32:25.955Z,7.10
2023-11-16T13:34:53.010Z,8.20
2023-11-16T13:37:21.846Z,8.00
2023-11-16T13:39:49.119Z,7.70
2023-11-16T13:42:16.575Z,8.10
2023-11-16T13:44:43.829Z,7.60
2023-11-16T13:47:12.547Z,7.50
2023-11-16T13:49:40.088Z,7.30
2023-11-16T13:52:07.434Z,7.60
2023-11-16T13:54:35.186Z,7.50
2023-11-16T13:57:02.680Z,8.30
2023-11-16T13:59:32.016Z,8.10
2023-11-16T14:01:59.134Z,7.90
2023-11-16T14:04:26.339Z,7.60
2023-11-16T14:06:53.735Z,7.20
2023-11-16T14:09:21.910Z,6.00
2023-11-16T14:11:49.593Z,6.50
2023-11-16T14:14:16.881Z,7.30
2023-11-16T14:16:43.939Z,5.80
2023-11-16T14:19:11.245Z,5.60
2023-11-16T14:21:39.145Z,5.00
2023-11-16T14:24:09.676Z,4.50
2023-11-16T14:26:42.519Z,4.80
2023-11-16T14:29:14.220Z,5.20
2023-11-16T14:31:41.826Z,4.60
2023-11-16T14:34:08.856Z,4.70
2023-11-16T14:36:35.956Z,5.60
2023-11-16T14:39:03.793Z,5.60
2023-11-16T14:41:30.959Z,4.30
2023-11-16T14:43:58.197Z,4.60
2023-11-16T14:46:25.350Z,4.10
2023-11-16T14:48:52.534Z,4.80
2023-11-16T14:51:21.846Z,4.60
2023-11-16T14:53:54.866Z,4.40
2023-11-16T14:56:26.884Z,3.80
2023-11-16T14:58:54.839Z,3.90
2023-11-16T15:01:22.742Z,4.40
2023-11-16T15:03:50.337Z,3.80
2023-11-16T15:06:17.513Z,4.50
2023-11-16T15:08:44.667Z,4.10
2023-11-16T15:11:12.994Z,3.90
2023-11-16T15:13:50.444Z,3.80
2023-11-16T15:16:23.535Z,4.10
2023-11-16T15:18:50.907Z,3.80
2023-11-16T15:21:19.656Z,4.10
2023-11-16T15:23:46.711Z,4.80
2023-11-16T15:26:17.683Z,5.00
2023-11-16T15:28:47.775Z,4.90
2023-11-16T15:31:16.095Z,5.00
2023-11-16T15:33:43.490Z,4.70
2023-11-16T15:36:11.245Z,5.80
2023-11-16T15:38:38.366Z,4.90
2023-11-16T15:41:07.599Z,4.10
2023-11-16T15:43:35.536Z,4.80
2023-11-16T15:46:02.853Z,3.70
2023-11-16T15:48:30.859Z,4.60
2023-11-16T15:50:58.578Z,4.60
2023-11-16T15:53:25.545Z,4.50
2023-11-16T15:55:52.982Z,5.00
2023-11-16T15:58:22.696Z,4.50
2023-11-16T16:00:49.973Z,4.80
2023-11-16T16:03:18.637Z,5.10
2023-11-16T16:05:47.916Z,5.50
2023-11-16T16:08:15.496Z,5.10
2023-11-16T16:10:43.346Z,5.80
2023-11-16T16:13:11.431Z,5.40
2023-11-16T16:15:38.872Z,4.90
2023-11-16T16:18:06.146Z,5.00
2023-11-16T16:20:35.373Z,4.40
2023-11-16T16:23:02.495Z,4.20
2023-11-16T16:25:33.324Z,4.60
2023-11-16T16:28:01.613Z,4.70
2023-11-16T16:30:30.253Z,4.40
2023-11-16T16:32:57.686Z,4.70
2023-11-16T16:35:24.709Z,4.50
2023-11-16T16:37:52.291Z,5.10
2023-11-16T16:40:20.869Z,4.50
2023-11-16T16:42:48.505Z,5.00
2023-11-16T16:45:15.865Z,5.80
2023-11-16T16:47:46.178Z,4.70
2023-11-16T16:50:18.465Z,5.20
2023-11-16T16:52:45.923Z,5.30
2023-11-16T16:55:13.326Z,5.50
2023-11-16T16:57:40.756Z,5.50
2023-11-16T17:00:14.686Z,5.70
2023-11-16T17:02:42.226Z,6.50
2023-11-16T17:05:10.637Z,5.00
2023-11-16T17:07:37.839Z,5.50
2023-11-16T17:10:08.118Z,4.80
2023-11-16T17:12:35.718Z,5.70
2023-11-16T17:15:03.844Z,6.30
2023-11-16T17:17:31.533Z,6.30
2023-11-16T17:19:59.237Z,6.40
2023-11-16T17:22:26.374Z,5.50
2023-11-16T17:24:53.508Z,5.50
2023-11-16T17:27:20.575Z,5.80
2023-11-16T17:29:48.425Z,5.80
2023-11-16T17:32:17.694Z,6.20
2023-11-16T17:34:44.845Z,5.70
2023-11-16T17:37:11.826Z,5.70
2023-11-16T17:39:39.577Z,7.70
2023-11-16T17:42:06.881Z,6.50
2023-11-16T17:44:34.126Z,8.60
2023-11-16T17:47:01.719Z,7.80
2023-11-16T17:49:29.280Z,7.50
2023-11-16T17:51:56.588Z,8.20
2023-11-16T17:54:25.218Z,10.70
2023-11-16T17:56:53.790Z,9.50
2023-11-16T17:59:22.338Z,10.40
2023-11-16T18:01:49.584Z,9.30
2023-11-16T18:04:17.047Z,9.00
2023-11-16T18:06:44.473Z,8.20
2023-11-16T18:09:12.455Z,8.40
2023-11-16T18:11:39.720Z,9.00
2023-11-16T18:14:09.032Z,8.70
2023-11-16T18:16:36.060Z,8.70
2023-11-16T18:19:03.832Z,9.80
2023-11-16T18:21:30.868Z,8.10
2023-11-16T18:23:58.378Z,9.00
2023-11-16T18:26:28.075Z,9.70
2023-11-16T18:28:56.088Z,8.80
2023-11-16T18:31:25.228Z,10.00
2023-11-16T18:33:53.485Z,9.30
2023-11-16T18:36:23.122Z,9.40
2023-11-16T18:38:51.547Z,9.90
2023-11-16T18:41:18.853Z,12.00
2023-11-16T18:43:46.604Z,10.90
2023-11-16T18:46:15.936Z,12.50
2023-11-16T18:48:43.173Z,11.20
2023-11-16T18:51:10.344Z,11.70
2023-11-16T18:53:38.789Z,11.50
2023-11-16T18:56:10.012Z,12.30
2023-11-16T18:58:38.982Z,11.70
2023-11-16T19:01:06.491Z,12.50
2023-11-16T19:03:34.409Z,10.70
2023-11-16T19:06:02.080Z,11.70
2023-11-16T19:08:30.798Z,11.90
2023-11-16T19:11:05.066Z,10.80
2023-11-16T19:13:35.088Z,12.90
2023-11-16T19:16:02.376Z,12.80
2023-11-16T19:18:32.068Z,13.60
2023-11-16T19:21:00.130Z,11.90
2023-11-16T19:23:29.696Z,11.20
2023-11-16T19:25:56.819Z,10.80
2023-11-16T19:28:25.880Z,11.50
2023-11-16T19:30:52.960Z,12.10
2023-11-16T19:33:21.565Z,13.90
2023-11-16T19:35:49.122Z,16.40
2023-11-16T19:38:19.056Z,14.90
2023-11-16T19:40:47.229Z,14.80
2023-11-16T19:43:15.718Z,15.80
2023-11-16T19:45:43.036Z,14.60
2023-11-16T19:48:11.607Z,13.10
2023-11-16T19:50:47.279Z,12.10
2023-11-16T19:53:17.029Z,12.10
2023-11-16T19:55:44.157Z,11.90
2023-11-16T19:58:11.915Z,12.70
2023-11-16T20:00:40.385Z,13.50
2023-11-16T20:03:08.926Z,17.40
2023-11-16T20:05:36.570Z,33.30
2023-11-16T20:08:03.870Z,19.70
2023-11-16T20:10:39.899Z,21.30
2023-11-16T20:15:37.943Z,11.80
2023-11-16T20:18:07.555Z,20.10
2023-11-16T20:20:44.868Z,27.00
2023-11-16T20:23:20.306Z,23.70
2023-11-16T20:25:49.777Z,14.20
2023-11-16T20:28:17.480Z,12.30
2023-11-16T20:30:46.039Z,13.90
2023-11-16T20:33:13.343Z,14.30
2023-11-16T20:35:40.634Z,14.40
2023-11-16T20:38:07.900Z,13.70
2023-11-16T20:40:35.044Z,13.00
2023-11-16T20:43:03.312Z,12.50
2023-11-16T20:45:32.080Z,13.00
2023-11-16T20:48:00.886Z,12.70
2023-11-16T20:50:28.619Z,13.30
2023-11-16T20:52:55.944Z,13.20
2023-11-16T20:55:23.226Z,13.60
2023-11-16T20:57:50.764Z,14.00
2023-11-16T21:00:21.378Z,13.70
2023-11-16T21:02:50.175Z,14.00
2023-11-16T21:05:19.631Z,14.10
2023-11-16T21:07:50.178Z,14.60
2023-11-16T21:10:18.071Z,15.30
2023-11-16T21:12:50.272Z,15.10
2023-11-16T21:15:17.894Z,15.70
2023-11-16T21:17:45.919Z,15.50
2023-11-16T21:20:17.720Z,15.50
2023-11-16T21:22:44.961Z,14.80
2023-11-16T21:25:13.602Z,14.90
2023-11-16T21:27:41.973Z,17.10
2023-11-16T21:30:17.536Z,15.90
2023-11-16T21:32:45.250Z,15.90
2023-11-16T21:35:16.381Z,15.50
2023-11-16T21:37:45.081Z,15.60
2023-11-16T21:40:14.106Z,16.20
2023-11-16T21:42:42.544Z,18.50
2023-11-16T21:45:11.587Z,18.10
2023-11-16T21:47:40.277Z,19.80
2023-11-16T21:50:10.616Z,17.30
2023-11-16T21:52:38.912Z,19.20
2023-11-16T21:55:08.055Z,19.70
2023-11-16T21:57:35.711Z,18.90
2023-11-16T22:00:03.499Z,19.00
2023-11-16T22:02:33.426Z,19.20
2023-11-16T22:05:01.231Z,19.60
2023-11-16T22:07:28.340Z,18.10
2023-11-16T22:09:55.355Z,20.30
2023-11-16T22:12:23.996Z,21.90
2023-11-16T22:14:51.189Z,22.70
2023-11-16T22:17:18.336Z,22.70
2023-11-16T22:19:45.594Z,22.60
2023-11-16T22:22:12.962Z,21.40
2023-11-16T22:24:40.089Z,22.00
2023-11-16T22:27:08.275Z,20.10
2023-11-16T22:29:36.251Z,20.50
2023-11-16T22:32:04.502Z,21.30
2023-11-16T22:34:31.643Z,19.80
2023-11-16T22:36:58.928Z,17.50
2023-11-16T22:39:26.830Z,20.90
2023-11-16T22:41:54.190Z,19.00
2023-11-16T22:44:22.012Z,20.70
2023-11-16T22:46:50.814Z,20.40
2023-11-16T22:49:19.568Z,18.90
2023-11-16T22:51:47.708Z,19.10
2023-11-16T22:54:14.982Z,19.00
2023-11-16T22:56:43.353Z,20.30
2023-11-16T22:59:13.753Z,19.30
2023-11-16T23:01:40.816Z,19.30
2023-11-16T23:04:10.760Z,18.00
2023-11-16T23:06:39.959Z,18.20
2023-11-16T23:09:07.840Z,19.60
2023-11-16T23:11:37.932Z,18.40
2023-11-16T23:14:05.385Z,17.70
2023-11-16T23:16:34.012Z,16.80
2023-11-16T23:19:01.473Z,18.00
2023-11-16T23:21:33.973Z,17.20
2023-11-16T23:24:10.752Z,17.80
2023-11-16T23:26:37.962Z,16.90
2023-11-16T23:29:09.808Z,17.20
2023-11-16T23:31:38.411Z,17.60
2023-11-16T23:34:08.331Z,15.80
2023-11-16T23:36:35.410Z,18.10
2023-11-16T23:39:03.350Z,16.70
2023-11-16T23:41:30.438Z,16.20
2023-11-16T23:43:58.043Z,15.00
2023-11-16T23:46:25.338Z,14.70
2023-11-16T23:48:53.749Z,19.40
2023-11-16T23:51:21.991Z,18.00
2023-11-16T23:53:49.254Z,16.20
2023-11-16T23:56:16.650Z,14.80
2023-11-16T23:58:43.962Z,14.40
